sensor_id;sensor_type;location;lat;lon;timestamp;pressure;altitude;pressure_sealevel;temperature;humidity
69911;BME280;63555;49.920;17.868;2023-04-22T00:04:23;98570.88;;;2.87;75.54
69911;BME280;63555;49.920;17.868;2023-04-22T00:09:24;98571.25;;;2.79;75.59
69911;BME280;63555;49.920;17.868;2023-04-22T00:14:24;98568.16;;;2.71;75.55
69911;BME280;63555;49.920;17.868;2023-04-22T00:19:25;98570.06;;;2.68;75.54
69911;BME280;63555;49.920;17.868;2023-04-22T00:24:26;98565.22;;;2.60;75.63
69911;BME280;63555;49.920;17.868;2023-04-22T00:29:26;98570.66;;;2.54;76.23
69911;BME280;63555;49.920;17.868;2023-04-22T00:34:26;98564.06;;;2.47;76.53
69911;BME280;63555;49.920;17.868;2023-04-22T00:39:27;98556.53;;;2.41;76.51
69911;BME280;63555;49.920;17.868;2023-04-22T00:44:28;98559.41;;;2.35;76.00
69911;BME280;63555;49.920;17.868;2023-04-22T00:49:29;98557.09;;;2.29;76.73
69911;BME280;63555;49.920;17.868;2023-04-22T00:54:30;98557.16;;;2.27;76.72
69911;BME280;63555;49.920;17.868;2023-04-22T00:59:31;98566.22;;;2.18;76.56
69911;BME280;63555;49.920;17.868;2023-04-22T01:04:31;98558.75;;;2.11;76.89
69911;BME280;63555;49.920;17.868;2023-04-22T01:09:32;98556.56;;;2.02;77.15
69911;BME280;63555;49.920;17.868;2023-04-22T01:14:33;98568.03;;;1.98;77.12
69911;BME280;63555;49.920;17.868;2023-04-22T01:19:34;98562.97;;;1.95;77.09
69911;BME280;63555;49.920;17.868;2023-04-22T01:24:34;98558.94;;;1.87;77.39
69911;BME280;63555;49.920;17.868;2023-04-22T01:29:36;98557.31;;;1.85;77.07
69911;BME280;63555;49.920;17.868;2023-04-22T01:34:37;98565.25;;;1.82;76.91
69911;BME280;63555;49.920;17.868;2023-04-22T01:39:37;98565.63;;;1.73;77.11
69911;BME280;63555;49.920;17.868;2023-04-22T01:44:38;98566.66;;;1.69;77.30
69911;BME280;63555;49.920;17.868;2023-04-22T01:49:38;98577.19;;;1.66;77.03
69911;BME280;63555;49.920;17.868;2023-04-22T01:54:39;98573.94;;;1.60;77.21
69911;BME280;63555;49.920;17.868;2023-04-22T01:59:40;98572.38;;;1.56;77.09
69911;BME280;63555;49.920;17.868;2023-04-22T02:04:40;98572.50;;;1.53;77.62
69911;BME280;63555;49.920;17.868;2023-04-22T02:09:40;98567.44;;;1.50;77.19
69911;BME280;63555;49.920;17.868;2023-04-22T02:14:41;98560.81;;;1.43;77.14
69911;BME280;63555;49.920;17.868;2023-04-22T02:19:41;98560.22;;;1.37;77.65
69911;BME280;63555;49.920;17.868;2023-04-22T02:24:41;98558.59;;;1.34;77.67
69911;BME280;63555;49.920;17.868;2023-04-22T02:29:42;98557.09;;;1.28;77.39
69911;BME280;63555;49.920;17.868;2023-04-22T02:34:42;98559.00;;;1.25;77.68
69911;BME280;63555;49.920;17.868;2023-04-22T02:39:43;98560.09;;;1.19;77.91
69911;BME280;63555;49.920;17.868;2023-04-22T02:44:43;98561.97;;;1.16;77.79
69911;BME280;63555;49.920;17.868;2023-04-22T02:49:43;98551.84;;;1.10;77.97
69911;BME280;63555;49.920;17.868;2023-04-22T02:54:43;98557.28;;;1.04;78.00
69911;BME280;63555;49.920;17.868;2023-04-22T02:59:45;98548.88;;;0.97;78.16
69911;BME280;63555;49.920;17.868;2023-04-22T03:04:45;98551.66;;;0.92;78.12
69911;BME280;63555;49.920;17.868;2023-04-22T03:09:46;98555.28;;;0.88;78.23
69911;BME280;63555;49.920;17.868;2023-04-22T03:14:46;98552.00;;;0.83;78.16
69911;BME280;63555;49.920;17.868;2023-04-22T03:19:46;98554.78;;;0.79;78.68
69911;BME280;63555;49.920;17.868;2023-04-22T03:24:47;98560.94;;;0.76;78.33
69911;BME280;63555;49.920;17.868;2023-04-22T03:29:47;98550.75;;;0.72;78.36
69911;BME280;63555;49.920;17.868;2023-04-22T03:34:47;98543.97;;;0.68;78.62
69911;BME280;63555;49.920;17.868;2023-04-22T03:39:48;98553.53;;;0.67;78.74
69911;BME280;63555;49.920;17.868;2023-04-22T03:44:48;98549.28;;;0.64;78.68
69911;BME280;63555;49.920;17.868;2023-04-22T03:49:48;98547.66;;;0.62;78.73
69911;BME280;63555;49.920;17.868;2023-04-22T03:54:49;98552.84;;;0.62;79.04
69911;BME280;63555;49.920;17.868;2023-04-22T03:59:49;98564.06;;;0.62;79.07
69911;BME280;63555;49.920;17.868;2023-04-22T04:04:49;98554.38;;;0.68;79.29
69911;BME280;63555;49.920;17.868;2023-04-22T04:09:50;98559.19;;;0.77;78.86
69911;BME280;63555;49.920;17.868;2023-04-22T04:14:50;98564.97;;;0.83;79.13
69911;BME280;63555;49.920;17.868;2023-04-22T04:19:51;98568.16;;;0.91;79.28
69911;BME280;63555;49.920;17.868;2023-04-22T04:24:52;98564.16;;;1.05;79.08
69911;BME280;63555;49.920;17.868;2023-04-22T04:29:54;98565.41;;;1.16;79.09
69911;BME280;63555;49.920;17.868;2023-04-22T04:34:55;98569.25;;;1.28;79.48
69911;BME280;63555;49.920;17.868;2023-04-22T04:39:56;98566.16;;;1.40;79.27
69911;BME280;63555;49.920;17.868;2023-04-22T04:44:58;98565.56;;;1.54;79.50
69911;BME280;63555;49.920;17.868;2023-04-22T04:49:59;98568.34;;;1.70;79.79
69911;BME280;63555;49.920;17.868;2023-04-22T04:55:00;98565.97;;;1.85;79.23
69911;BME280;63555;49.920;17.868;2023-04-22T05:00:00;98570.56;;;1.99;79.38
69911;BME280;63555;49.920;17.868;2023-04-22T05:05:02;98570.66;;;2.16;79.31
69911;BME280;63555;49.920;17.868;2023-04-22T05:10:06;98569.81;;;2.35;79.53
69911;BME280;63555;49.920;17.868;2023-04-22T05:15:06;98567.22;;;2.53;80.07
69911;BME280;63555;49.920;17.868;2023-04-22T05:20:07;98568.06;;;2.73;79.68
69911;BME280;63555;49.920;17.868;2023-04-22T05:25:08;98575.63;;;2.96;79.23
69911;BME280;63555;49.920;17.868;2023-04-22T05:30:09;98571.16;;;3.17;79.27
69911;BME280;63555;49.920;17.868;2023-04-22T05:35:09;98565.56;;;3.42;79.98
69911;BME280;63555;49.920;17.868;2023-04-22T05:40:10;98569.13;;;3.75;79.80
69911;BME280;63555;49.920;17.868;2023-04-22T05:45:11;98563.00;;;4.09;79.45
69911;BME280;63555;49.920;17.868;2023-04-22T05:50:11;98566.38;;;4.44;79.30
69911;BME280;63555;49.920;17.868;2023-04-22T05:55:11;98565.41;;;5.24;80.90
69911;BME280;63555;49.920;17.868;2023-04-22T06:00:12;98567.34;;;6.80;80.65
69911;BME280;63555;49.920;17.868;2023-04-22T06:05:13;98549.63;;;8.53;78.71
69911;BME280;63555;49.920;17.868;2023-04-22T06:10:13;98549.88;;;10.16;75.96
69911;BME280;63555;49.920;17.868;2023-04-22T06:15:13;98552.16;;;11.63;73.28
69911;BME280;63555;49.920;17.868;2023-04-22T06:20:14;98551.47;;;12.94;70.85
69911;BME280;63555;49.920;17.868;2023-04-22T06:25:14;98544.84;;;14.15;68.78
69911;BME280;63555;49.920;17.868;2023-04-22T06:30:15;98543.16;;;15.16;66.68
69911;BME280;63555;49.920;17.868;2023-04-22T06:35:15;98552.13;;;16.04;64.87
69911;BME280;63555;49.920;17.868;2023-04-22T06:40:15;98543.84;;;17.01;63.05
69911;BME280;63555;49.920;17.868;2023-04-22T06:45:16;98544.16;;;17.97;59.95
69911;BME280;63555;49.920;17.868;2023-04-22T06:50:16;98548.22;;;18.72;58.02
69911;BME280;63555;49.920;17.868;2023-04-22T06:55:17;98550.72;;;19.44;55.82
69911;BME280;63555;49.920;17.868;2023-04-22T07:00:17;98548.59;;;20.08;53.77
69911;BME280;63555;49.920;17.868;2023-04-22T07:05:17;98550.81;;;20.86;51.53
69911;BME280;63555;49.920;17.868;2023-04-22T07:10:18;98556.50;;;21.49;48.85
69911;BME280;63555;49.920;17.868;2023-04-22T07:15:18;98563.81;;;21.98;47.21
69911;BME280;63555;49.920;17.868;2023-04-22T07:20:19;98549.28;;;22.69;44.55
69911;BME280;63555;49.920;17.868;2023-04-22T07:25:19;98549.81;;;23.40;42.01
69911;BME280;63555;49.920;17.868;2023-04-22T07:30:19;98553.28;;;24.08;40.24
69911;BME280;63555;49.920;17.868;2023-04-22T07:35:20;98553.69;;;24.65;38.70
69911;BME280;63555;49.920;17.868;2023-04-22T07:40:20;98554.09;;;25.33;36.74
69911;BME280;63555;49.920;17.868;2023-04-22T07:45:21;98551.88;;;25.93;35.72
69911;BME280;63555;49.920;17.868;2023-04-22T07:50:21;98552.41;;;26.76;33.76
69911;BME280;63555;49.920;17.868;2023-04-22T07:55:21;98553.31;;;27.73;32.30
69911;BME280;63555;49.920;17.868;2023-04-22T08:00:22;98545.69;;;28.23;31.45
69911;BME280;63555;49.920;17.868;2023-04-22T08:05:22;98545.34;;;28.67;31.30
69911;BME280;63555;49.920;17.868;2023-04-22T08:10:22;98546.91;;;29.14;30.88
69911;BME280;63555;49.920;17.868;2023-04-22T08:15:23;98537.28;;;29.35;29.53
69911;BME280;63555;49.920;17.868;2023-04-22T08:20:23;98541.78;;;29.70;29.69
69911;BME280;63555;49.920;17.868;2023-04-22T08:25:25;98536.97;;;30.22;28.24
69911;BME280;63555;49.920;17.868;2023-04-22T08:30:26;98531.06;;;30.81;26.95
69911;BME280;63555;49.920;17.868;2023-04-22T08:35:26;98527.91;;;30.67;26.63
69911;BME280;63555;49.920;17.868;2023-04-22T08:40:27;98519.09;;;30.82;26.51
69911;BME280;63555;49.920;17.868;2023-04-22T08:45:28;98529.22;;;31.25;26.06
69911;BME280;63555;49.920;17.868;2023-04-22T08:50:29;98514.38;;;31.64;24.81
69911;BME280;63555;49.920;17.868;2023-04-22T08:55:31;98522.22;;;32.15;23.49
69911;BME280;63555;49.920;17.868;2023-04-22T09:00:31;98523.78;;;32.38;22.52
69911;BME280;63555;49.920;17.868;2023-04-22T09:05:35;98520.13;;;32.69;22.07
69911;BME280;63555;49.920;17.868;2023-04-22T09:10:37;98526.00;;;32.93;21.44
69911;BME280;63555;49.920;17.868;2023-04-22T09:15:37;98525.31;;;33.13;20.57
69911;BME280;63555;49.920;17.868;2023-04-22T09:20:41;98527.81;;;33.24;20.81
69911;BME280;63555;49.920;17.868;2023-04-22T09:25:43;98524.38;;;33.70;20.27
69911;BME280;63555;49.920;17.868;2023-04-22T09:30:45;98523.34;;;34.37;18.76
69911;BME280;63555;49.920;17.868;2023-04-22T09:35:45;98521.72;;;34.36;18.77
69911;BME280;63555;49.920;17.868;2023-04-22T09:40:45;98512.34;;;34.62;18.86
69911;BME280;63555;49.920;17.868;2023-04-22T09:45:46;98510.13;;;34.85;18.19
69911;BME280;63555;49.920;17.868;2023-04-22T09:50:49;98500.72;;;35.06;17.66
69911;BME280;63555;49.920;17.868;2023-04-22T09:55:52;98490.19;;;35.33;18.03
69911;BME280;63555;49.920;17.868;2023-04-22T10:00:55;98485.34;;;35.10;17.42
69911;BME280;63555;49.920;17.868;2023-04-22T10:05:56;98486.22;;;35.00;18.31
69911;BME280;63555;49.920;17.868;2023-04-22T10:10:57;98487.13;;;34.65;18.84
69911;BME280;63555;49.920;17.868;2023-04-22T10:15:59;98471.53;;;35.30;17.82
69911;BME280;63555;49.920;17.868;2023-04-22T10:21:00;98474.75;;;35.42;18.54
69911;BME280;63555;49.920;17.868;2023-04-22T10:26:03;98467.66;;;35.31;17.60
69911;BME280;63555;49.920;17.868;2023-04-22T10:31:19;98462.13;;;34.97;17.54
69911;BME280;63555;49.920;17.868;2023-04-22T10:36:20;98466.41;;;35.13;17.62
69911;BME280;63555;49.920;17.868;2023-04-22T10:41:46;98450.94;;;35.77;16.58
69911;BME280;63555;49.920;17.868;2023-04-22T10:51:53;98453.94;;;37.34;16.47
69911;BME280;63555;49.920;17.868;2023-04-22T10:57:01;98444.63;;;37.30;16.04
69911;BME280;63555;49.920;17.868;2023-04-22T11:02:04;98451.84;;;37.02;15.32
69911;BME280;63555;49.920;17.868;2023-04-22T11:17:40;98427.81;;;37.50;14.97
69911;BME280;63555;49.920;17.868;2023-04-22T11:22:43;98428.50;;;38.07;14.66
69911;BME280;63555;49.920;17.868;2023-04-22T11:27:44;98420.84;;;38.64;14.52
69911;BME280;63555;49.920;17.868;2023-04-22T11:32:46;98420.94;;;38.45;14.14
69911;BME280;63555;49.920;17.868;2023-04-22T11:37:53;98416.66;;;38.26;15.47
69911;BME280;63555;49.920;17.868;2023-04-22T11:42:56;98407.16;;;38.32;15.20
69911;BME280;63555;49.920;17.868;2023-04-22T11:47:57;98405.72;;;38.75;15.07
69911;BME280;63555;49.920;17.868;2023-04-22T11:53:00;98398.88;;;38.86;14.99
69911;BME280;63555;49.920;17.868;2023-04-22T11:58:07;98400.84;;;39.58;14.64
69911;BME280;63555;49.920;17.868;2023-04-22T12:08:19;98398.44;;;41.07;13.41
69911;BME280;63555;49.920;17.868;2023-04-22T12:13:24;98396.16;;;41.09;13.51
69911;BME280;63555;49.920;17.868;2023-04-22T12:28:48;98376.34;;;40.67;13.34
69911;BME280;63555;49.920;17.868;2023-04-22T12:33:49;98375.47;;;40.80;12.79
69911;BME280;63555;49.920;17.868;2023-04-22T12:38:50;98368.00;;;40.98;12.44
69911;BME280;63555;49.920;17.868;2023-04-22T12:43:50;98373.13;;;40.73;12.39
69911;BME280;63555;49.920;17.868;2023-04-22T12:48:51;98362.84;;;40.57;12.46
69911;BME280;63555;49.920;17.868;2023-04-22T12:53:52;98348.75;;;40.76;12.92
69911;BME280;63555;49.920;17.868;2023-04-22T12:58:52;98354.69;;;40.43;12.51
69911;BME280;63555;49.920;17.868;2023-04-22T13:03:52;98340.97;;;40.29;12.97
69911;BME280;63555;49.920;17.868;2023-04-22T13:08:53;98340.56;;;39.83;12.82
69911;BME280;63555;49.920;17.868;2023-04-22T13:13:54;98328.66;;;39.73;13.23
69911;BME280;63555;49.920;17.868;2023-04-22T13:18:54;98317.13;;;40.02;13.70
69911;BME280;63555;49.920;17.868;2023-04-22T13:23:54;98324.59;;;39.93;14.02
69911;BME280;63555;49.920;17.868;2023-04-22T13:28:55;98305.84;;;39.90;14.08
69911;BME280;63555;49.920;17.868;2023-04-22T13:33:55;98306.28;;;40.15;13.81
69911;BME280;63555;49.920;17.868;2023-04-22T13:38:56;98300.25;;;40.04;13.97
69911;BME280;63555;49.920;17.868;2023-04-22T13:43:56;98290.38;;;39.49;13.91
69911;BME280;63555;49.920;17.868;2023-04-22T13:48:58;98285.56;;;39.10;14.16
69911;BME280;63555;49.920;17.868;2023-04-22T13:53:59;98276.91;;;39.26;13.49
69911;BME280;63555;49.920;17.868;2023-04-22T13:59:00;98279.44;;;39.44;13.94
69911;BME280;63555;49.920;17.868;2023-04-22T14:04:00;98273.94;;;39.22;14.25
69911;BME280;63555;49.920;17.868;2023-04-22T14:09:01;98277.88;;;39.30;12.88
69911;BME280;63555;49.920;17.868;2023-04-22T14:14:03;98281.53;;;39.16;13.16
69911;BME280;63555;49.920;17.868;2023-04-22T14:19:03;98275.75;;;38.68;13.96
69911;BME280;63555;49.920;17.868;2023-04-22T14:24:05;98272.41;;;38.58;14.50
69911;BME280;63555;49.920;17.868;2023-04-22T14:29:05;98259.28;;;38.13;14.30
69911;BME280;63555;49.920;17.868;2023-04-22T14:34:06;98258.38;;;37.77;14.89
69911;BME280;63555;49.920;17.868;2023-04-22T14:39:06;98248.66;;;37.66;15.02
69911;BME280;63555;49.920;17.868;2023-04-22T14:44:06;98244.56;;;37.49;15.10
69911;BME280;63555;49.920;17.868;2023-04-22T14:49:07;98245.88;;;36.68;14.83
69911;BME280;63555;49.920;17.868;2023-04-22T14:54:07;98231.59;;;34.99;14.55
69911;BME280;63555;49.920;17.868;2023-04-22T14:59:08;98229.53;;;33.62;15.50
69911;BME280;63555;49.920;17.868;2023-04-22T15:04:08;98224.56;;;33.69;15.47
69911;BME280;63555;49.920;17.868;2023-04-22T15:09:11;98226.06;;;32.95;15.53
69911;BME280;63555;49.920;17.868;2023-04-22T15:14:12;98223.50;;;32.33;16.09
69911;BME280;63555;49.920;17.868;2023-04-22T15:19:12;98224.69;;;31.42;16.97
69911;BME280;63555;49.920;17.868;2023-04-22T15:24:12;98219.56;;;30.28;17.73
69911;BME280;63555;49.920;17.868;2023-04-22T15:29:13;98213.41;;;29.33;17.72
69911;BME280;63555;49.920;17.868;2023-04-22T15:34:14;98217.41;;;28.18;19.16
69911;BME280;63555;49.920;17.868;2023-04-22T15:39:15;98219.56;;;27.41;19.83
69911;BME280;63555;49.920;17.868;2023-04-22T15:44:16;98213.03;;;26.84;20.75
69911;BME280;63555;49.920;17.868;2023-04-22T15:49:17;98217.75;;;26.35;21.27
69911;BME280;63555;49.920;17.868;2023-04-22T15:54:18;98219.03;;;25.66;21.24
69911;BME280;63555;49.920;17.868;2023-04-22T15:59:18;98210.66;;;24.81;22.16
69911;BME280;63555;49.920;17.868;2023-04-22T16:04:19;98213.84;;;24.47;23.07
69911;BME280;63555;49.920;17.868;2023-04-22T16:09:20;98209.16;;;24.35;23.35
69911;BME280;63555;49.920;17.868;2023-04-22T16:14:20;98199.91;;;24.50;22.85
69911;BME280;63555;49.920;17.868;2023-04-22T16:19:20;98199.66;;;24.58;22.77
69911;BME280;63555;49.920;17.868;2023-04-22T16:24:21;98198.69;;;24.45;23.04
69911;BME280;63555;49.920;17.868;2023-04-22T16:29:21;98205.00;;;24.33;23.35
69911;BME280;63555;49.920;17.868;2023-04-22T16:34:21;98192.50;;;24.00;24.12
69911;BME280;63555;49.920;17.868;2023-04-22T16:39:22;98199.13;;;23.60;24.29
69911;BME280;63555;49.920;17.868;2023-04-22T16:44:22;98195.66;;;23.13;24.62
69911;BME280;63555;49.920;17.868;2023-04-22T16:49:22;98189.25;;;22.48;25.80
69911;BME280;63555;49.920;17.868;2023-04-22T16:54:23;98196.25;;;21.68;26.62
69911;BME280;63555;49.920;17.868;2023-04-22T16:59:23;98188.50;;;20.83;27.47
69911;BME280;63555;49.920;17.868;2023-04-22T17:04:24;98195.41;;;20.07;28.89
69911;BME280;63555;49.920;17.868;2023-04-22T17:09:24;98196.50;;;19.32;29.83
69911;BME280;63555;49.920;17.868;2023-04-22T17:14:24;98193.19;;;18.63;30.27
69911;BME280;63555;49.920;17.868;2023-04-22T17:19:25;98207.63;;;18.00;31.13
69911;BME280;63555;49.920;17.868;2023-04-22T17:24:26;98192.03;;;17.49;31.91
69911;BME280;63555;49.920;17.868;2023-04-22T17:29:27;98195.00;;;17.07;32.28
69911;BME280;63555;49.920;17.868;2023-04-22T17:34:27;98203.56;;;16.62;33.66
69911;BME280;63555;49.920;17.868;2023-04-22T17:39:28;98210.19;;;16.17;36.05
69911;BME280;63555;49.920;17.868;2023-04-22T17:44:28;98206.63;;;15.76;36.95
69911;BME280;63555;49.920;17.868;2023-04-22T17:49:30;98210.91;;;15.35;37.97
69911;BME280;63555;49.920;17.868;2023-04-22T17:54:30;98219.03;;;15.00;39.02
69911;BME280;63555;49.920;17.868;2023-04-22T17:59:31;98225.75;;;14.68;40.04
69911;BME280;63555;49.920;17.868;2023-04-22T18:04:31;98228.50;;;14.41;41.06
69911;BME280;63555;49.920;17.868;2023-04-22T18:09:31;98230.03;;;14.08;41.79
69911;BME280;63555;49.920;17.868;2023-04-22T18:14:32;98230.63;;;13.74;42.59
69911;BME280;63555;49.920;17.868;2023-04-22T18:19:32;98240.84;;;13.42;43.88
69911;BME280;63555;49.920;17.868;2023-04-22T18:24:32;98246.38;;;13.11;45.01
69911;BME280;63555;49.920;17.868;2023-04-22T18:29:33;98246.72;;;12.79;46.05
69911;BME280;63555;49.920;17.868;2023-04-22T18:34:34;98247.47;;;12.52;47.08
69911;BME280;63555;49.920;17.868;2023-04-22T18:39:35;98250.53;;;12.28;47.73
69911;BME280;63555;49.920;17.868;2023-04-22T18:44:35;98257.88;;;12.05;48.16
69911;BME280;63555;49.920;17.868;2023-04-22T18:49:35;98260.06;;;11.81;49.18
69911;BME280;63555;49.920;17.868;2023-04-22T18:54:36;98260.38;;;11.57;50.31
69911;BME280;63555;49.920;17.868;2023-04-22T18:59:37;98261.56;;;11.34;50.61
69911;BME280;63555;49.920;17.868;2023-04-22T19:04:38;98258.22;;;11.11;51.22
69911;BME280;63555;49.920;17.868;2023-04-22T19:09:38;98265.34;;;10.90;52.36
69911;BME280;63555;49.920;17.868;2023-04-22T19:14:39;98268.13;;;10.67;52.73
69911;BME280;63555;49.920;17.868;2023-04-22T19:19:39;98266.44;;;10.45;53.74
69911;BME280;63555;49.920;17.868;2023-04-22T19:24:40;98271.78;;;10.23;54.84
69911;BME280;63555;49.920;17.868;2023-04-22T19:29:41;98266.19;;;10.05;54.96
69911;BME280;63555;49.920;17.868;2023-04-22T19:34:42;98271.72;;;9.91;55.66
69911;BME280;63555;49.920;17.868;2023-04-22T19:39:42;98271.28;;;9.75;55.93
69911;BME280;63555;49.920;17.868;2023-04-22T19:44:43;98276.94;;;9.59;56.34
69911;BME280;63555;49.920;17.868;2023-04-22T19:49:45;98274.28;;;9.48;57.04
69911;BME280;63555;49.920;17.868;2023-04-22T19:54:47;98268.19;;;9.36;57.45
69911;BME280;63555;49.920;17.868;2023-04-22T19:59:49;98268.44;;;9.22;58.22
69911;BME280;63555;49.920;17.868;2023-04-22T20:04:51;98273.00;;;9.09;58.31
69911;BME280;63555;49.920;17.868;2023-04-22T20:09:52;98273.34;;;8.93;58.96
69911;BME280;63555;49.920;17.868;2023-04-22T20:14:55;98273.56;;;8.79;59.81
69911;BME280;63555;49.920;17.868;2023-04-22T20:19:57;98271.63;;;8.70;59.64
69911;BME280;63555;49.920;17.868;2023-04-22T20:25:02;98272.41;;;8.59;60.85
69911;BME280;63555;49.920;17.868;2023-04-22T20:30:04;98272.13;;;8.51;60.51
69911;BME280;63555;49.920;17.868;2023-04-22T20:35:05;98272.34;;;8.37;60.78
69911;BME280;63555;49.920;17.868;2023-04-22T20:40:07;98272.50;;;8.22;60.54
69911;BME280;63555;49.920;17.868;2023-04-22T20:45:08;98270.16;;;8.07;61.53
69911;BME280;63555;49.920;17.868;2023-04-22T20:50:14;98271.16;;;7.93;61.29
69911;BME280;63555;49.920;17.868;2023-04-22T20:55:15;98271.22;;;7.80;61.98
69911;BME280;63555;49.920;17.868;2023-04-22T21:00:16;98275.63;;;7.67;62.38
69911;BME280;63555;49.920;17.868;2023-04-22T21:05:16;98269.59;;;7.54;63.06
69911;BME280;63555;49.920;17.868;2023-04-22T21:10:18;98266.13;;;7.53;63.49
69911;BME280;63555;49.920;17.868;2023-04-22T21:15:19;98269.91;;;7.49;63.51
69911;BME280;63555;49.920;17.868;2023-04-22T21:20:21;98267.00;;;7.41;63.37
69911;BME280;63555;49.920;17.868;2023-04-22T21:25:23;98278.13;;;7.32;64.24
69911;BME280;63555;49.920;17.868;2023-04-22T21:30:25;98273.03;;;7.18;64.47
69911;BME280;63555;49.920;17.868;2023-04-22T21:35:25;98282.25;;;7.11;64.25
69911;BME280;63555;49.920;17.868;2023-04-22T21:40:26;98276.69;;;7.02;65.18
69911;BME280;63555;49.920;17.868;2023-04-22T21:45:27;98288.00;;;6.90;64.78
69911;BME280;63555;49.920;17.868;2023-04-22T21:50:27;98289.78;;;6.77;65.62
69911;BME280;63555;49.920;17.868;2023-04-22T21:55:29;98291.44;;;6.65;65.96
69911;BME280;63555;49.920;17.868;2023-04-22T22:00:29;98285.16;;;6.55;65.61
69911;BME280;63555;49.920;17.868;2023-04-22T22:05:30;98284.91;;;6.46;65.87
69911;BME280;63555;49.920;17.868;2023-04-22T22:10:31;98280.19;;;6.38;66.61
69911;BME280;63555;49.920;17.868;2023-04-22T22:15:31;98286.56;;;6.34;66.74
69911;BME280;63555;49.920;17.868;2023-04-22T22:20:32;98289.59;;;6.28;66.67
69911;BME280;63555;49.920;17.868;2023-04-22T22:25:32;98290.94;;;6.21;66.71
69911;BME280;63555;49.920;17.868;2023-04-22T22:30:33;98287.97;;;6.13;67.76
69911;BME280;63555;49.920;17.868;2023-04-22T22:35:33;98289.03;;;6.10;67.63
69911;BME280;63555;49.920;17.868;2023-04-22T22:40:34;98296.50;;;6.02;67.69
69911;BME280;63555;49.920;17.868;2023-04-22T22:45:34;98295.41;;;5.92;67.75
69911;BME280;63555;49.920;17.868;2023-04-22T22:50:35;98292.41;;;5.84;68.04
69911;BME280;63555;49.920;17.868;2023-04-22T22:55:35;98297.09;;;5.79;68.31
69911;BME280;63555;49.920;17.868;2023-04-22T23:00:36;98291.53;;;5.70;68.57
69911;BME280;63555;49.920;17.868;2023-04-22T23:05:36;98296.22;;;5.65;68.95
69911;BME280;63555;49.920;17.868;2023-04-22T23:10:37;98288.66;;;5.61;68.63
69911;BME280;63555;49.920;17.868;2023-04-22T23:15:37;98287.34;;;5.54;68.89
69911;BME280;63555;49.920;17.868;2023-04-22T23:20:37;98289.72;;;5.44;69.04
69911;BME280;63555;49.920;17.868;2023-04-22T23:25:38;98290.94;;;5.38;69.39
69911;BME280;63555;49.920;17.868;2023-04-22T23:30:39;98285.06;;;5.35;69.52
69911;BME280;63555;49.920;17.868;2023-04-22T23:35:41;98275.72;;;5.31;69.50
69911;BME280;63555;49.920;17.868;2023-04-22T23:40:43;98278.63;;;5.26;69.44
69911;BME280;63555;49.920;17.868;2023-04-22T23:45:43;98280.84;;;5.18;69.81
69911;BME280;63555;49.920;17.868;2023-04-22T23:50:44;98279.72;;;5.08;69.96
69911;BME280;63555;49.920;17.868;2023-04-22T23:55:45;98276.72;;;5.00;70.00
